sensor_id;sensor_type;location;lat;lon;timestamp;pressure;altitude;pressure_sealevel;temperature;humidity
76819;BME280;65772;51.096;17.006;2023-08-01T00:00:47;99242.02;;;21.54;57.59
76819;BME280;65772;51.096;17.006;2023-08-01T00:03:18;99243.59;;;21.54;57.83
76819;BME280;65772;51.096;17.006;2023-08-01T00:05:48;99240.31;;;21.53;58.16
76819;BME280;65772;51.096;17.006;2023-08-01T00:08:19;99234.23;;;21.53;58.22
76819;BME280;65772;51.096;17.006;2023-08-01T00:10:49;99230.27;;;21.52;57.95
76819;BME280;65772;51.096;17.006;2023-08-01T00:13:20;99226.11;;;21.52;57.96
76819;BME280;65772;51.096;17.006;2023-08-01T00:15:50;99224.55;;;21.52;58.06
76819;BME280;65772;51.096;17.006;2023-08-01T00:18:36;99218.18;;;21.51;58.07
76819;BME280;65772;51.096;17.006;2023-08-01T00:21:06;99215.29;;;21.49;58.01
76819;BME280;65772;51.096;17.006;2023-08-01T00:23:39;99210.42;;;21.49;58.27
76819;BME280;65772;51.096;17.006;2023-08-01T00:26:10;99202.63;;;21.49;58.14
76819;BME280;65772;51.096;17.006;2023-08-01T00:28:40;99203.69;;;21.48;57.95
76819;BME280;65772;51.096;17.006;2023-08-01T00:31:11;99196.25;;;21.47;57.74
76819;BME280;65772;51.096;17.006;2023-08-01T00:33:41;99194.55;;;21.46;57.72
76819;BME280;65772;51.096;17.006;2023-08-01T00:36:12;99186.76;;;21.46;58.10
76819;BME280;65772;51.096;17.006;2023-08-01T00:38:42;99186.76;;;21.45;57.89
76819;BME280;65772;51.096;17.006;2023-08-01T00:41:13;99187.64;;;21.45;57.72
76819;BME280;65772;51.096;17.006;2023-08-01T00:43:43;99180.21;;;21.43;57.68
76819;BME280;65772;51.096;17.006;2023-08-01T00:46:14;99181.77;;;21.44;58.05
76819;BME280;65772;51.096;17.006;2023-08-01T00:48:45;99175.52;;;21.43;58.27
76819;BME280;65772;51.096;17.006;2023-08-01T00:51:16;99171.04;;;21.43;58.03
76819;BME280;65772;51.096;17.006;2023-08-01T00:53:46;99164.44;;;21.43;58.22
76819;BME280;65772;51.096;17.006;2023-08-01T00:56:17;99155.33;;;21.40;58.38
76819;BME280;65772;51.096;17.006;2023-08-01T00:58:47;99157.21;;;21.40;58.08
76819;BME280;65772;51.096;17.006;2023-08-01T01:01:18;99148.75;;;21.40;58.11
76819;BME280;65772;51.096;17.006;2023-08-01T01:03:49;99144.96;;;21.39;58.28
76819;BME280;65772;51.096;17.006;2023-08-01T01:06:24;99142.89;;;21.39;58.22
76819;BME280;65772;51.096;17.006;2023-08-01T01:08:55;99134.05;;;21.38;58.04
76819;BME280;65772;51.096;17.006;2023-08-01T01:11:26;99129.21;;;21.38;57.95
76819;BME280;65772;51.096;17.006;2023-08-01T01:13:57;99127.02;;;21.36;58.05
76819;BME280;65772;51.096;17.006;2023-08-01T01:16:27;99123.56;;;21.35;57.80
76819;BME280;65772;51.096;17.006;2023-08-01T01:18:58;99118.73;;;21.34;57.91
76819;BME280;65772;51.096;17.006;2023-08-01T01:21:28;99114.95;;;21.33;57.85
76819;BME280;65772;51.096;17.006;2023-08-01T01:24:00;99111.70;;;21.31;57.92
76819;BME280;65772;51.096;17.006;2023-08-01T01:26:33;99110.67;;;21.31;58.12
76819;BME280;65772;51.096;17.006;2023-08-01T01:29:02;99108.27;;;21.30;58.17
76819;BME280;65772;51.096;17.006;2023-08-01T01:31:33;99109.59;;;21.28;58.29
76819;BME280;65772;51.096;17.006;2023-08-01T01:34:04;99100.23;;;21.27;58.08
76819;BME280;65772;51.096;17.006;2023-08-01T01:36:35;99094.03;;;21.26;58.11
76819;BME280;65772;51.096;17.006;2023-08-01T01:39:07;99092.16;;;21.24;58.06
76819;BME280;65772;51.096;17.006;2023-08-01T01:41:38;99090.80;;;21.24;58.01
76819;BME280;65772;51.096;17.006;2023-08-01T01:44:09;99090.85;;;21.22;57.90
76819;BME280;65772;51.096;17.006;2023-08-01T01:46:40;99088.61;;;21.21;57.98
76819;BME280;65772;51.096;17.006;2023-08-01T01:49:11;99083.10;;;21.20;58.05
76819;BME280;65772;51.096;17.006;2023-08-01T01:51:42;99080.55;;;21.18;57.92
76819;BME280;65772;51.096;17.006;2023-08-01T01:54:12;99079.36;;;21.17;57.90
76819;BME280;65772;51.096;17.006;2023-08-01T01:56:43;99074.91;;;21.15;57.74
76819;BME280;65772;51.096;17.006;2023-08-01T01:59:13;99074.61;;;21.13;57.90
76819;BME280;65772;51.096;17.006;2023-08-01T02:01:44;99070.63;;;21.13;57.87
76819;BME280;65772;51.096;17.006;2023-08-01T02:04:15;99068.41;;;21.12;57.79
76819;BME280;65772;51.096;17.006;2023-08-01T02:06:45;99069.49;;;21.11;57.58
76819;BME280;65772;51.096;17.006;2023-08-01T02:09:17;99063.96;;;21.10;57.74
76819;BME280;65772;51.096;17.006;2023-08-01T02:11:48;99060.02;;;21.09;57.60
76819;BME280;65772;51.096;17.006;2023-08-01T02:14:19;99058.81;;;21.08;57.64
76819;BME280;65772;51.096;17.006;2023-08-01T02:16:49;99058.52;;;21.07;57.70
76819;BME280;65772;51.096;17.006;2023-08-01T02:19:20;99054.03;;;21.07;57.46
76819;BME280;65772;51.096;17.006;2023-08-01T02:21:51;99053.03;;;21.06;57.39
76819;BME280;65772;51.096;17.006;2023-08-01T02:24:21;99052.16;;;21.06;57.95
76819;BME280;65772;51.096;17.006;2023-08-01T02:26:52;99051.83;;;21.05;57.63
76819;BME280;65772;51.096;17.006;2023-08-01T02:29:23;99049.95;;;21.04;57.71
76819;BME280;65772;51.096;17.006;2023-08-01T02:31:54;99043.89;;;21.04;57.67
76819;BME280;65772;51.096;17.006;2023-08-01T02:34:25;99045.66;;;21.02;57.67
76819;BME280;65772;51.096;17.006;2023-08-01T02:36:56;99040.99;;;21.02;57.74
76819;BME280;65772;51.096;17.006;2023-08-01T02:39:26;99036.71;;;21.00;57.66
76819;BME280;65772;51.096;17.006;2023-08-01T02:41:57;99032.42;;;20.99;57.90
76819;BME280;65772;51.096;17.006;2023-08-01T02:44:28;99026.37;;;20.98;57.83
76819;BME280;65772;51.096;17.006;2023-08-01T02:46:59;99021.05;;;20.97;57.94
76819;BME280;65772;51.096;17.006;2023-08-01T02:49:30;99016.95;;;20.95;57.93
76819;BME280;65772;51.096;17.006;2023-08-01T02:52:01;99020.60;;;20.95;58.04
76819;BME280;65772;51.096;17.006;2023-08-01T02:54:31;99019.23;;;20.94;58.46
76819;BME280;65772;51.096;17.006;2023-08-01T02:57:02;99014.73;;;20.94;58.44
76819;BME280;65772;51.096;17.006;2023-08-01T02:59:33;99014.74;;;20.94;58.57
76819;BME280;65772;51.096;17.006;2023-08-01T03:02:04;99009.03;;;20.93;58.47
76819;BME280;65772;51.096;17.006;2023-08-01T03:04:35;99005.40;;;20.92;58.39
76819;BME280;65772;51.096;17.006;2023-08-01T03:07:15;99008.55;;;20.92;58.49
76819;BME280;65772;51.096;17.006;2023-08-01T03:09:46;99003.39;;;20.90;58.35
76819;BME280;65772;51.096;17.006;2023-08-01T03:12:16;98998.94;;;20.89;58.44
76819;BME280;65772;51.096;17.006;2023-08-01T03:14:46;98997.77;;;20.88;58.71
76819;BME280;65772;51.096;17.006;2023-08-01T03:17:17;98991.36;;;20.87;58.51
76819;BME280;65772;51.096;17.006;2023-08-01T03:19:48;98987.40;;;20.87;58.65
76819;BME280;65772;51.096;17.006;2023-08-01T03:22:19;98983.79;;;20.86;58.49
76819;BME280;65772;51.096;17.006;2023-08-01T03:24:51;98986.75;;;20.86;58.65
76819;BME280;65772;51.096;17.006;2023-08-01T03:27:23;98981.70;;;20.86;58.66
76819;BME280;65772;51.096;17.006;2023-08-01T03:29:54;98980.45;;;20.87;58.72
76819;BME280;65772;51.096;17.006;2023-08-01T03:32:25;98978.52;;;20.87;58.68
76819;BME280;65772;51.096;17.006;2023-08-01T03:34:55;98974.52;;;20.88;58.79
76819;BME280;65772;51.096;17.006;2023-08-01T03:37:27;98969.98;;;20.88;58.73
76819;BME280;65772;51.096;17.006;2023-08-01T03:39:57;98965.45;;;20.89;58.75
76819;BME280;65772;51.096;17.006;2023-08-01T03:42:28;98960.59;;;20.89;58.71
76819;BME280;65772;51.096;17.006;2023-08-01T03:44:58;98955.41;;;20.88;58.59
76819;BME280;65772;51.096;17.006;2023-08-01T03:47:29;98958.34;;;20.89;58.50
76819;BME280;65772;51.096;17.006;2023-08-01T03:50:00;98959.04;;;20.89;58.46
76819;BME280;65772;51.096;17.006;2023-08-01T03:52:30;98959.38;;;20.89;58.41
76819;BME280;65772;51.096;17.006;2023-08-01T03:55:01;98961.11;;;20.89;58.55
76819;BME280;65772;51.096;17.006;2023-08-01T03:57:31;98957.30;;;20.89;58.50
76819;BME280;65772;51.096;17.006;2023-08-01T04:00:06;98956.58;;;20.89;58.54
76819;BME280;65772;51.096;17.006;2023-08-01T04:02:43;98955.38;;;20.89;58.49
76819;BME280;65772;51.096;17.006;2023-08-01T04:05:19;98951.77;;;20.88;58.41
76819;BME280;65772;51.096;17.006;2023-08-01T04:07:50;98953.34;;;20.88;58.36
76819;BME280;65772;51.096;17.006;2023-08-01T04:10:24;98956.98;;;20.88;58.36
76819;BME280;65772;51.096;17.006;2023-08-01T04:12:55;98957.35;;;20.87;58.35
76819;BME280;65772;51.096;17.006;2023-08-01T04:15:25;98955.45;;;20.87;58.47
76819;BME280;65772;51.096;17.006;2023-08-01T04:17:56;98952.82;;;20.88;58.82
76819;BME280;65772;51.096;17.006;2023-08-01T04:20:26;98951.23;;;20.89;58.78
76819;BME280;65772;51.096;17.006;2023-08-01T04:22:57;98955.09;;;20.93;58.73
76819;BME280;65772;51.096;17.006;2023-08-01T04:25:28;98957.95;;;20.96;58.67
76819;BME280;65772;51.096;17.006;2023-08-01T04:27:58;98962.39;;;20.97;58.89
76819;BME280;65772;51.096;17.006;2023-08-01T04:30:29;98961.59;;;21.00;59.01
76819;BME280;65772;51.096;17.006;2023-08-01T04:33:00;98961.73;;;21.01;59.05
76819;BME280;65772;51.096;17.006;2023-08-01T04:35:30;98959.80;;;21.01;59.20
76819;BME280;65772;51.096;17.006;2023-08-01T04:38:01;98958.05;;;21.02;59.57
76819;BME280;65772;51.096;17.006;2023-08-01T04:40:31;98953.38;;;21.02;59.66
76819;BME280;65772;51.096;17.006;2023-08-01T04:43:02;98950.25;;;21.02;59.97
76819;BME280;65772;51.096;17.006;2023-08-01T04:45:33;98944.52;;;21.02;59.98
76819;BME280;65772;51.096;17.006;2023-08-01T04:48:04;98942.11;;;21.01;60.11
76819;BME280;65772;51.096;17.006;2023-08-01T04:50:35;98946.13;;;21.01;60.34
76819;BME280;65772;51.096;17.006;2023-08-01T04:53:05;98944.80;;;20.99;60.52
76819;BME280;65772;51.096;17.006;2023-08-01T04:55:36;98944.16;;;20.98;60.97
76819;BME280;65772;51.096;17.006;2023-08-01T04:58:07;98944.86;;;20.97;61.39
76819;BME280;65772;51.096;17.006;2023-08-01T05:00:41;98949.31;;;20.99;61.35
76819;BME280;65772;51.096;17.006;2023-08-01T05:03:12;98946.20;;;20.99;61.49
76819;BME280;65772;51.096;17.006;2023-08-01T05:05:43;98945.45;;;20.96;61.45
76819;BME280;65772;51.096;17.006;2023-08-01T05:08:13;98944.27;;;20.95;61.70
76819;BME280;65772;51.096;17.006;2023-08-01T05:10:44;98943.11;;;20.93;61.66
76819;BME280;65772;51.096;17.006;2023-08-01T05:13:14;98941.20;;;20.93;61.92
76819;BME280;65772;51.096;17.006;2023-08-01T05:15:46;98939.17;;;20.91;61.97
76819;BME280;65772;51.096;17.006;2023-08-01T05:18:25;98936.64;;;20.89;62.21
76819;BME280;65772;51.096;17.006;2023-08-01T05:20:55;98930.29;;;20.88;62.73
76819;BME280;65772;51.096;17.006;2023-08-01T05:23:26;98923.23;;;20.87;62.91
76819;BME280;65772;51.096;17.006;2023-08-01T05:25:56;98917.73;;;20.85;63.11
76819;BME280;65772;51.096;17.006;2023-08-01T05:28:27;98914.78;;;20.85;63.22
76819;BME280;65772;51.096;17.006;2023-08-01T05:30:57;98913.41;;;20.85;63.33
76819;BME280;65772;51.096;17.006;2023-08-01T05:33:28;98915.02;;;20.83;63.53
76819;BME280;65772;51.096;17.006;2023-08-01T05:35:59;98912.62;;;20.82;63.68
76819;BME280;65772;51.096;17.006;2023-08-01T05:38:30;98917.54;;;20.80;63.91
76819;BME280;65772;51.096;17.006;2023-08-01T05:41:00;98920.56;;;20.78;64.08
76819;BME280;65772;51.096;17.006;2023-08-01T05:43:31;98921.35;;;20.75;64.39
76819;BME280;65772;51.096;17.006;2023-08-01T05:46:01;98923.34;;;20.73;64.36
76819;BME280;65772;51.096;17.006;2023-08-01T05:48:32;98920.65;;;20.71;64.64
76819;BME280;65772;51.096;17.006;2023-08-01T05:51:03;98914.91;;;20.71;64.85
76819;BME280;65772;51.096;17.006;2023-08-01T05:53:33;98912.64;;;20.71;64.91
76819;BME280;65772;51.096;17.006;2023-08-01T05:56:04;98913.05;;;20.70;64.96
76819;BME280;65772;51.096;17.006;2023-08-01T05:58:34;98917.08;;;20.68;65.14
76819;BME280;65772;51.096;17.006;2023-08-01T06:01:06;98919.64;;;20.65;65.24
76819;BME280;65772;51.096;17.006;2023-08-01T06:03:38;98919.39;;;20.62;65.38
76819;BME280;65772;51.096;17.006;2023-08-01T06:06:09;98905.77;;;20.60;65.50
76819;BME280;65772;51.096;17.006;2023-08-01T06:08:40;98905.81;;;20.58;65.74
76819;BME280;65772;51.096;17.006;2023-08-01T06:11:10;98902.84;;;20.59;65.80
76819;BME280;65772;51.096;17.006;2023-08-01T06:13:41;98899.19;;;20.59;65.87
76819;BME280;65772;51.096;17.006;2023-08-01T06:16:11;98900.78;;;20.58;66.04
76819;BME280;65772;51.096;17.006;2023-08-01T06:18:42;98899.77;;;20.58;66.10
76819;BME280;65772;51.096;17.006;2023-08-01T06:21:12;98901.48;;;20.58;66.14
76819;BME280;65772;51.096;17.006;2023-08-01T06:23:43;98894.40;;;20.58;66.27
76819;BME280;65772;51.096;17.006;2023-08-01T06:26:13;98897.72;;;20.57;66.40
76819;BME280;65772;51.096;17.006;2023-08-01T06:28:44;98891.52;;;20.55;66.39
76819;BME280;65772;51.096;17.006;2023-08-01T06:31:16;98888.86;;;20.57;66.37
76819;BME280;65772;51.096;17.006;2023-08-01T06:33:46;98888.50;;;20.57;66.38
76819;BME280;65772;51.096;17.006;2023-08-01T06:36:17;98889.73;;;20.57;66.48
76819;BME280;65772;51.096;17.006;2023-08-01T06:38:47;98884.02;;;20.57;66.60
76819;BME280;65772;51.096;17.006;2023-08-01T06:41:18;98878.27;;;20.58;66.63
76819;BME280;65772;51.096;17.006;2023-08-01T06:43:48;98869.95;;;20.58;66.59
76819;BME280;65772;51.096;17.006;2023-08-01T06:46:18;98867.88;;;20.57;66.49
76819;BME280;65772;51.096;17.006;2023-08-01T06:48:49;98859.90;;;20.57;66.51
76819;BME280;65772;51.096;17.006;2023-08-01T06:51:20;98853.08;;;20.59;66.61
76819;BME280;65772;51.096;17.006;2023-08-01T06:53:50;98851.64;;;20.61;66.54
76819;BME280;65772;51.096;17.006;2023-08-01T06:56:21;98853.73;;;20.60;66.52
76819;BME280;65772;51.096;17.006;2023-08-01T06:58:52;98849.53;;;20.62;66.48
76819;BME280;65772;51.096;17.006;2023-08-01T07:01:23;98853.02;;;20.61;66.46
76819;BME280;65772;51.096;17.006;2023-08-01T07:03:53;98854.77;;;20.60;66.44
76819;BME280;65772;51.096;17.006;2023-08-01T07:06:25;98851.66;;;20.60;66.51
76819;BME280;65772;51.096;17.006;2023-08-01T07:08:55;98850.84;;;20.59;66.51
76819;BME280;65772;51.096;17.006;2023-08-01T07:11:26;98847.23;;;20.57;66.42
76819;BME280;65772;51.096;17.006;2023-08-01T07:13:57;98850.62;;;20.60;66.43
76819;BME280;65772;51.096;17.006;2023-08-01T07:16:27;98845.92;;;20.61;66.42
76819;BME280;65772;51.096;17.006;2023-08-01T07:18:59;98846.96;;;20.60;66.59
76819;BME280;65772;51.096;17.006;2023-08-01T07:21:30;98845.21;;;20.61;66.63
76819;BME280;65772;51.096;17.006;2023-08-01T07:24:00;98839.33;;;20.61;66.83
76819;BME280;65772;51.096;17.006;2023-08-01T07:26:31;98836.38;;;20.60;66.82
76819;BME280;65772;51.096;17.006;2023-08-01T07:29:01;98838.84;;;20.60;66.88
76819;BME280;65772;51.096;17.006;2023-08-01T07:31:32;98837.30;;;20.59;66.80
76819;BME280;65772;51.096;17.006;2023-08-01T07:34:03;98834.09;;;20.62;66.90
76819;BME280;65772;51.096;17.006;2023-08-01T07:36:33;98828.81;;;20.64;66.98
76819;BME280;65772;51.096;17.006;2023-08-01T07:39:04;98827.73;;;20.65;66.94
76819;BME280;65772;51.096;17.006;2023-08-01T07:41:34;98825.55;;;20.67;66.91
76819;BME280;65772;51.096;17.006;2023-08-01T07:44:05;98818.75;;;20.68;67.17
76819;BME280;65772;51.096;17.006;2023-08-01T07:46:36;98814.20;;;20.70;67.24
76819;BME280;65772;51.096;17.006;2023-08-01T07:49:07;98813.91;;;20.73;67.25
76819;BME280;65772;51.096;17.006;2023-08-01T07:51:37;98815.66;;;20.77;67.19
76819;BME280;65772;51.096;17.006;2023-08-01T07:54:08;98812.42;;;20.80;67.02
76819;BME280;65772;51.096;17.006;2023-08-01T07:56:39;98809.77;;;20.82;67.13
76819;BME280;65772;51.096;17.006;2023-08-01T07:59:09;98807.14;;;20.82;67.21
76819;BME280;65772;51.096;17.006;2023-08-01T08:01:40;98799.62;;;20.84;67.19
76819;BME280;65772;51.096;17.006;2023-08-01T08:04:11;98801.02;;;20.84;67.10
76819;BME280;65772;51.096;17.006;2023-08-01T08:06:42;98798.40;;;20.85;66.95
76819;BME280;65772;51.096;17.006;2023-08-01T08:09:13;98794.44;;;20.83;66.76
76819;BME280;65772;51.096;17.006;2023-08-01T08:11:43;98792.53;;;20.83;66.69
76819;BME280;65772;51.096;17.006;2023-08-01T08:14:14;98795.77;;;20.85;66.73
76819;BME280;65772;51.096;17.006;2023-08-01T08:16:44;98792.96;;;20.86;66.75
76819;BME280;65772;51.096;17.006;2023-08-01T08:19:15;98783.02;;;20.87;66.57
76819;BME280;65772;51.096;17.006;2023-08-01T08:21:45;98775.18;;;20.88;66.86
76819;BME280;65772;51.096;17.006;2023-08-01T08:24:16;98772.70;;;20.89;66.86
76819;BME280;65772;51.096;17.006;2023-08-01T08:26:47;98763.48;;;20.90;67.00
76819;BME280;65772;51.096;17.006;2023-08-01T08:29:17;98763.61;;;20.91;66.92
76819;BME280;65772;51.096;17.006;2023-08-01T08:31:48;98756.16;;;20.91;66.79
76819;BME280;65772;51.096;17.006;2023-08-01T08:34:18;98747.36;;;20.94;66.89
76819;BME280;65772;51.096;17.006;2023-08-01T08:36:49;98744.35;;;20.96;66.86
76819;BME280;65772;51.096;17.006;2023-08-01T08:39:20;98744.77;;;20.98;66.88
76819;BME280;65772;51.096;17.006;2023-08-01T08:41:52;98743.34;;;20.99;66.72
76819;BME280;65772;51.096;17.006;2023-08-01T08:44:21;98747.26;;;21.01;66.85
76819;BME280;65772;51.096;17.006;2023-08-01T08:46:52;98745.52;;;21.01;67.00
76819;BME280;65772;51.096;17.006;2023-08-01T08:49:23;98743.83;;;21.00;66.95
76819;BME280;65772;51.096;17.006;2023-08-01T08:51:56;98746.29;;;20.99;67.28
76819;BME280;65772;51.096;17.006;2023-08-01T08:54:28;98750.23;;;21.00;67.28
76819;BME280;65772;51.096;17.006;2023-08-01T08:56:59;98752.27;;;21.02;67.36
76819;BME280;65772;51.096;17.006;2023-08-01T08:59:30;98746.16;;;21.03;67.29
76819;BME280;65772;51.096;17.006;2023-08-01T09:02:03;98740.23;;;21.04;67.17
76819;BME280;65772;51.096;17.006;2023-08-01T09:04:33;98742.11;;;21.04;67.14
76819;BME280;65772;51.096;17.006;2023-08-01T09:07:08;98741.05;;;21.05;67.05
76819;BME280;65772;51.096;17.006;2023-08-01T09:09:40;98744.02;;;21.04;67.02
76819;BME280;65772;51.096;17.006;2023-08-01T09:12:11;98740.77;;;21.03;66.87
76819;BME280;65772;51.096;17.006;2023-08-01T09:14:42;98737.73;;;21.01;66.65
76819;BME280;65772;51.096;17.006;2023-08-01T09:17:13;98740.70;;;21.00;66.78
76819;BME280;65772;51.096;17.006;2023-08-01T09:19:45;98743.48;;;21.00;66.77
76819;BME280;65772;51.096;17.006;2023-08-01T09:22:18;98747.15;;;20.99;66.57
76819;BME280;65772;51.096;17.006;2023-08-01T09:24:54;98752.39;;;20.99;66.77
76819;BME280;65772;51.096;17.006;2023-08-01T09:27:33;98751.33;;;20.99;66.73
76819;BME280;65772;51.096;17.006;2023-08-01T09:30:09;98750.69;;;20.98;66.82
76819;BME280;65772;51.096;17.006;2023-08-01T09:32:52;98748.96;;;20.98;66.91
76819;BME280;65772;51.096;17.006;2023-08-01T09:35:23;98742.42;;;20.96;66.97
76819;BME280;65772;51.096;17.006;2023-08-01T09:37:54;98738.52;;;20.98;66.94
76819;BME280;65772;51.096;17.006;2023-08-01T09:40:24;98737.48;;;20.99;66.73
76819;BME280;65772;51.096;17.006;2023-08-01T09:42:55;98731.17;;;21.00;66.59
76819;BME280;65772;51.096;17.006;2023-08-01T09:45:31;98726.27;;;21.01;66.60
76819;BME280;65772;51.096;17.006;2023-08-01T09:48:04;98723.09;;;21.03;66.64
76819;BME280;65772;51.096;17.006;2023-08-01T09:50:35;98716.24;;;21.05;66.53
76819;BME280;65772;51.096;17.006;2023-08-01T09:53:11;98716.02;;;21.06;66.66
76819;BME280;65772;51.096;17.006;2023-08-01T09:55:44;98717.42;;;21.06;66.74
76819;BME280;65772;51.096;17.006;2023-08-01T09:58:18;98710.73;;;21.08;66.86
76819;BME280;65772;51.096;17.006;2023-08-01T10:00:52;98705.46;;;21.09;66.72
76819;BME280;65772;51.096;17.006;2023-08-01T10:03:23;98703.69;;;21.10;66.56
76819;BME280;65772;51.096;17.006;2023-08-01T10:05:54;98701.80;;;21.10;66.35
76819;BME280;65772;51.096;17.006;2023-08-01T10:08:26;98701.59;;;21.10;66.35
76819;BME280;65772;51.096;17.006;2023-08-01T10:10:58;98694.29;;;21.11;66.18
76819;BME280;65772;51.096;17.006;2023-08-01T10:13:31;98692.32;;;21.13;66.28
76819;BME280;65772;51.096;17.006;2023-08-01T10:16:04;98686.76;;;21.13;66.14
76819;BME280;65772;51.096;17.006;2023-08-01T10:18:37;98682.44;;;21.13;66.07
76819;BME280;65772;51.096;17.006;2023-08-01T10:21:11;98678.80;;;21.12;65.96
76819;BME280;65772;51.096;17.006;2023-08-01T10:23:45;98677.52;;;21.14;65.44
76819;BME280;65772;51.096;17.006;2023-08-01T10:26:16;98675.58;;;21.15;65.49
76819;BME280;65772;51.096;17.006;2023-08-01T10:28:52;98678.63;;;21.17;65.29
76819;BME280;65772;51.096;17.006;2023-08-01T10:31:22;98681.91;;;21.17;65.21
76819;BME280;65772;51.096;17.006;2023-08-01T10:34:02;98681.26;;;21.16;64.81
76819;BME280;65772;51.096;17.006;2023-08-01T10:36:33;98679.33;;;21.16;64.89
76819;BME280;65772;51.096;17.006;2023-08-01T10:39:04;98676.73;;;21.17;64.79
76819;BME280;65772;51.096;17.006;2023-08-01T10:41:36;98671.85;;;21.17;65.00
76819;BME280;65772;51.096;17.006;2023-08-01T10:44:10;98666.30;;;21.17;65.00
76819;BME280;65772;51.096;17.006;2023-08-01T10:46:49;98670.33;;;21.16;64.96
76819;BME280;65772;51.096;17.006;2023-08-01T10:49:32;98675.02;;;21.16;64.63
76819;BME280;65772;51.096;17.006;2023-08-01T10:52:04;98675.20;;;21.16;64.49
76819;BME280;65772;51.096;17.006;2023-08-01T10:54:45;98674.27;;;21.17;64.58
76819;BME280;65772;51.096;17.006;2023-08-01T10:57:19;98672.37;;;21.17;64.39
76819;BME280;65772;51.096;17.006;2023-08-01T10:59:50;98672.43;;;21.15;63.88
76819;BME280;65772;51.096;17.006;2023-08-01T11:02:26;98672.14;;;21.14;63.65
76819;BME280;65772;51.096;17.006;2023-08-01T11:04:59;98677.54;;;21.13;63.80
76819;BME280;65772;51.096;17.006;2023-08-01T11:07:30;98670.98;;;21.12;63.65
76819;BME280;65772;51.096;17.006;2023-08-01T11:10:07;98665.27;;;21.12;63.82
76819;BME280;65772;51.096;17.006;2023-08-01T11:12:39;98656.52;;;21.10;63.67
76819;BME280;65772;51.096;17.006;2023-08-01T11:15:13;98650.72;;;21.08;63.77
76819;BME280;65772;51.096;17.006;2023-08-01T11:17:46;98656.86;;;21.06;63.86
76819;BME280;65772;51.096;17.006;2023-08-01T11:20:18;98653.63;;;21.04;63.79
76819;BME280;65772;51.096;17.006;2023-08-01T11:22:55;98651.41;;;21.03;63.86
76819;BME280;65772;51.096;17.006;2023-08-01T11:25:35;98646.67;;;21.05;63.74
76819;BME280;65772;51.096;17.006;2023-08-01T11:28:08;98646.63;;;21.06;63.64
76819;BME280;65772;51.096;17.006;2023-08-01T11:30:39;98642.63;;;21.06;63.49
76819;BME280;65772;51.096;17.006;2023-08-01T11:33:17;98637.85;;;21.08;63.47
76819;BME280;65772;51.096;17.006;2023-08-01T11:35:53;98631.46;;;21.11;63.41
76819;BME280;65772;51.096;17.006;2023-08-01T11:38:27;98632.42;;;21.13;63.46
76819;BME280;65772;51.096;17.006;2023-08-01T11:40:59;98634.08;;;21.15;63.27
76819;BME280;65772;51.096;17.006;2023-08-01T11:43:40;98626.41;;;21.16;63.25
76819;BME280;65772;51.096;17.006;2023-08-01T11:46:12;98620.13;;;21.17;63.13
76819;BME280;65772;51.096;17.006;2023-08-01T11:48:45;98613.15;;;21.18;63.35
76819;BME280;65772;51.096;17.006;2023-08-01T11:51:16;98610.38;;;21.18;63.45
76819;BME280;65772;51.096;17.006;2023-08-01T11:53:47;98609.62;;;21.20;63.35
76819;BME280;65772;51.096;17.006;2023-08-01T11:56:28;98603.65;;;21.22;63.48
76819;BME280;65772;51.096;17.006;2023-08-01T11:58:59;98599.15;;;21.26;63.53
76819;BME280;65772;51.096;17.006;2023-08-01T12:01:30;98597.48;;;21.29;63.35
76819;BME280;65772;51.096;17.006;2023-08-01T12:04:00;98593.14;;;21.32;63.27
76819;BME280;65772;51.096;17.006;2023-08-01T12:06:33;98594.38;;;21.36;63.23
76819;BME280;65772;51.096;17.006;2023-08-01T12:09:10;98589.86;;;21.40;63.29
76819;BME280;65772;51.096;17.006;2023-08-01T12:11:41;98592.46;;;21.44;62.93
76819;BME280;65772;51.096;17.006;2023-08-01T12:14:13;98584.19;;;21.47;62.52
76819;BME280;65772;51.096;17.006;2023-08-01T12:16:46;98579.73;;;21.49;62.28
76819;BME280;65772;51.096;17.006;2023-08-01T12:19:20;98571.06;;;21.53;62.33
76819;BME280;65772;51.096;17.006;2023-08-01T12:21:51;98567.11;;;21.56;61.95
76819;BME280;65772;51.096;17.006;2023-08-01T12:24:22;98572.59;;;21.58;61.71
76819;BME280;65772;51.096;17.006;2023-08-01T12:26:52;98584.48;;;21.60;61.59
76819;BME280;65772;51.096;17.006;2023-08-01T12:29:23;98578.40;;;21.60;61.01
76819;BME280;65772;51.096;17.006;2023-08-01T12:31:53;98576.06;;;21.62;60.83
76819;BME280;65772;51.096;17.006;2023-08-01T12:34:24;98575.14;;;21.63;60.50
76819;BME280;65772;51.096;17.006;2023-08-01T12:36:55;98581.68;;;21.64;60.56
76819;BME280;65772;51.096;17.006;2023-08-01T12:39:25;98581.81;;;21.65;60.31
76819;BME280;65772;51.096;17.006;2023-08-01T12:41:56;98590.56;;;21.68;60.03
76819;BME280;65772;51.096;17.006;2023-08-01T12:44:26;98587.51;;;21.70;60.05
76819;BME280;65772;51.096;17.006;2023-08-01T12:46:57;98589.09;;;21.73;59.83
76819;BME280;65772;51.096;17.006;2023-08-01T12:49:28;98585.02;;;21.75;59.65
76819;BME280;65772;51.096;17.006;2023-08-01T12:51:59;98584.80;;;21.76;59.78
76819;BME280;65772;51.096;17.006;2023-08-01T12:54:29;98581.44;;;21.77;59.34
76819;BME280;65772;51.096;17.006;2023-08-01T12:57:00;98580.34;;;21.79;59.38
76819;BME280;65772;51.096;17.006;2023-08-01T12:59:31;98582.59;;;21.79;59.35
76819;BME280;65772;51.096;17.006;2023-08-01T13:02:01;98580.98;;;21.80;58.76
76819;BME280;65772;51.096;17.006;2023-08-01T13:04:37;98580.45;;;21.80;58.94
76819;BME280;65772;51.096;17.006;2023-08-01T13:07:08;98574.50;;;21.81;58.96
76819;BME280;65772;51.096;17.006;2023-08-01T13:09:38;98572.50;;;21.83;58.99
76819;BME280;65772;51.096;17.006;2023-08-01T13:12:10;98564.61;;;21.84;58.68